Bubiyan, Kuwait

8:42 AM AST on September 26, 2016 (GMT +0300)
Abadan | | Change Station

Elev 10 ft 30.37 °N, 48.25 °E | Updated 12 minutes ago

Clear
Clear
86 °F
Feels Like 86 °F
N
12
Wind Variable Wind from WNW

Today
High -- | Low -- °F
--% Chance of Precip.
Yesterday
High -- | Low -- °F
Precip. -- in
Pressure 29.80 in
Visibility -9999.0 miles
Clouds
Dew Point 36 °F
Humidity 17%
Rainfall 0.00 in
Snow Depth Not available.
5:37 AM 5:37 PM
Waning Crescent, 21% visible
METAR OIAA 260530Z 30010KT CAVOK 30/02 Q1009
Pressure 29.80 in
Visibility -9999.0 miles
Clouds
Dew Point 36 °F
Humidity 17%
Rainfall 0.00 in
Snow Depth Not available.
5:37 AM 5:37 PM
Waning Crescent, 21% visible
METAR OIAA 260530Z 30010KT CAVOK 30/02 Q1009

10-Day Weather Forecast

No radar image for this location.
×

Almanac

Astronomy

Sep. 26, 2016 Rise Set
Actual Time
Civil Twilight
Nautical Twilight
Astronomical Twilight
Moon
Length of Visible Light
Length of Day
Tomorrow will be .
, % of the Moon is Illuminated

Today's Extremes

Country Highs Country Lows

Community

WunderPhotos

Upload Photos

1,941,852 photos uploaded!

WunderBlog® & News

Nearby

Air Quality

  Air Quality AQ Index Pollutant
Not available.

Snow Depth

Station Depth Elevation

Earthquake Activity

City Distance Mag. Time & Date
Minimum magnitude displayed is 2.5.

Coastal Water Temperatures

Place Temperature

Stations

Nearby Weather Stations

Station Location Temp. Windchill Dew Point Humidity Wind Precip. Elev Updated Type